Time;durP1;ratioP1;P1;durP2;ratioP2;P2;SDS_P1;SDS_P2;PMS_P1;PMS_P2;Temp;Humidity;BMP_temperature;BMP_pressure;BME280_temperature;BME280_humidity;BME280_pressure;Samples;Min_cycle;Max_cycle;Signal;HPM_P1;HPM_P2
2021/11/17 02:27:18;;;;;;;97.17;34.27;;;2.70;99.90;;;;;;4439510;32;20266;-67
2021/11/17 02:30:20;;;;;;;85.10;35.23;;;2.70;99.90;;;;;;4441083;32;20214;-68
2021/11/17 02:33:12;;;;;;;76.83;33.77;;;2.70;99.90;;;;;;4440194;32;20170;-67
2021/11/17 02:36:04;;;;;;;106.77;35.63;;;2.70;99.90;;;;;;4441317;32;20157;-67
2021/11/17 02:38:51;;;;;;;85.77;34.20;;;2.70;99.90;;;;;;4440572;32;20473;-67
2021/11/17 02:41:40;;;;;;;87.17;35.30;;;2.60;99.90;;;;;;4439898;32;20208;-67
2021/11/17 02:44:19;;;;;;;83.40;34.60;;;2.60;99.90;;;;;;4439498;32;20449;-67
2021/11/17 02:47:25;;;;;;;90.57;33.93;;;2.60;99.90;;;;;;4438829;32;20197;-67
2021/11/17 02:50:02;;;;;;;75.03;33.27;;;2.60;99.90;;;;;;4395497;32;20658;-67
2021/11/17 02:52:57;;;;;;;94.27;33.73;;;2.60;99.90;;;;;;4394981;32;20233;-67
2021/11/17 02:55:52;;;;;;;81.73;32.93;;;2.60;99.90;;;;;;4394761;32;20541;-67
2021/11/17 02:58:38;;;;;;;82.47;33.17;;;2.50;99.90;;;;;;4394858;32;20186;-67
2021/11/17 03:01:08;;;;;;;87.90;34.57;;;2.50;99.90;;;;;;4394484;32;20199;-68
2021/11/17 03:03:44;;;;;;;105.27;33.60;;;2.50;99.90;;;;;;4395156;32;20167;-67
2021/11/17 03:06:18;;;;;;;83.13;34.17;;;2.50;99.90;;;;;;4396297;32;20576;-67
2021/11/17 03:09:03;;;;;;;84.93;33.40;;;2.50;99.90;;;;;;4407233;32;20215;-68
2021/11/17 03:11:58;;;;;;;83.73;32.67;;;2.50;99.90;;;;;;4394022;32;20533;-67
2021/11/17 03:15:00;;;;;;;77.80;32.73;;;2.50;99.90;;;;;;4408089;32;20159;-67
2021/11/17 03:17:59;;;;;;;80.93;33.53;;;2.50;99.90;;;;;;4362971;32;20183;-67
2021/11/17 03:20:28;;;;;;;83.80;34.17;;;2.60;99.90;;;;;;4346528;33;20266;-67
2021/11/17 03:23:01;;;;;;;80.40;31.80;;;2.60;99.90;;;;;;4362215;32;20160;-67
2021/11/17 03:25:59;;;;;;;78.33;32.37;;;2.60;99.90;;;;;;4350601;32;20235;-67
2021/11/17 03:28:33;;;;;;;79.30;31.70;;;2.60;99.90;;;;;;4380550;32;20195;-67
2021/11/17 03:31:15;;;;;;;74.47;32.20;;;2.50;99.90;;;;;;4380659;32;20239;-67
2021/11/17 03:33:51;;;;;;;72.57;32.63;;;2.50;99.90;;;;;;4378793;32;20541;-67
2021/11/17 03:36:34;;;;;;;77.47;31.83;;;2.50;99.90;;;;;;4379036;32;20248;-67
2021/11/17 03:39:20;;;;;;;76.30;31.33;;;2.50;99.90;;;;;;4378681;32;20564;-67
2021/11/17 03:41:59;;;;;;;74.33;31.47;;;2.40;99.90;;;;;;4378638;32;20207;-67
2021/11/17 03:44:44;;;;;;;67.73;29.90;;;2.40;99.90;;;;;;4379362;32;20549;-67
2021/11/17 03:47:26;;;;;;;73.33;31.43;;;2.40;99.90;;;;;;4379836;32;20174;-67
2021/11/17 03:50:23;;;;;;;70.47;30.20;;;2.40;99.90;;;;;;4380219;32;20249;-67
2021/11/17 03:53:02;;;;;;;74.10;30.43;;;2.40;99.90;;;;;;4379319;32;20186;-67
2021/11/17 03:55:38;;;;;;;69.50;29.13;;;2.30;99.90;;;;;;4430330;32;20190;-67
2021/11/17 03:58:28;;;;;;;70.80;30.60;;;2.30;99.90;;;;;;4440400;32;20197;-67
2021/11/17 04:01:14;;;;;;;66.57;29.37;;;2.30;99.90;;;;;;4437905;32;20205;-67
2021/11/17 04:03:41;;;;;;;70.90;29.93;;;2.30;99.90;;;;;;4438095;32;20200;-68
2021/11/17 04:06:32;;;;;;;67.73;30.40;;;2.30;99.90;;;;;;4440799;32;20143;-68
2021/11/17 04:09:27;;;;;;;69.97;28.83;;;2.20;99.90;;;;;;4425022;32;20212;-67
2021/11/17 04:12:06;;;;;;;67.20;29.13;;;2.20;99.90;;;;;;4439324;32;20525;-67
2021/11/17 04:15:04;;;;;;;65.27;28.93;;;2.20;99.90;;;;;;4438178;32;20213;-67
2021/11/17 04:17:31;;;;;;;71.37;29.70;;;2.20;99.90;;;;;;4440277;32;20184;-67
2021/11/17 04:20:11;;;;;;;63.70;28.67;;;2.10;99.90;;;;;;4438233;32;20181;-67
2021/11/17 04:22:47;;;;;;;66.70;28.23;;;2.00;99.90;;;;;;4437329;32;20536;-67
2021/11/17 04:25:52;;;;;;;64.23;27.73;;;1.90;99.90;;;;;;4438815;32;20201;-67
2021/11/17 04:28:34;;;;;;;63.87;27.93;;;1.90;99.90;;;;;;4376651;32;20250;-67
2021/11/17 04:31:29;;;;;;;68.17;29.43;;;1.90;99.90;;;;;;4375311;32;20143;-67
2021/11/17 04:34:10;;;;;;;71.00;29.37;;;2.00;99.90;;;;;;4350342;32;20219;-67
2021/11/17 04:36:55;;;;;;;65.70;29.23;;;2.00;99.90;;;;;;4362629;32;20148;-67
2021/11/17 04:39:47;;;;;;;68.93;28.27;;;2.00;99.90;;;;;;4348084;33;20709;-67
2021/11/17 04:43:01;;;;;;;70.10;28.57;;;2.10;99.90;;;;;;4349732;33;20175;-67
2021/11/17 04:45:58;;;;;;;73.73;27.80;;;2.10;99.90;;;;;;4331452;33;20191;-67
2021/11/17 04:48:47;;;;;;;65.63;27.87;;;1.90;99.90;;;;;;4318868;33;20515;-67
2021/11/17 04:51:20;;;;;;;62.80;27.33;;;1.80;99.90;;;;;;4332743;33;20255;-67
2021/11/17 04:54:06;;;;;;;66.67;28.17;;;1.80;99.90;;;;;;4319217;33;20173;-67
2021/11/17 04:56:45;;;;;;;64.20;27.13;;;1.90;99.90;;;;;;4318861;33;20216;-67
2021/11/17 04:59:42;;;;;;;65.40;28.27;;;1.90;99.90;;;;;;4360852;32;20591;-67
2021/11/17 05:02:21;;;;;;;68.97;28.63;;;1.90;99.90;;;;;;4390863;32;20175;-67
2021/11/17 05:05:10;;;;;;;71.77;27.57;;;1.80;99.90;;;;;;4391923;32;20175;-68
2021/11/17 05:07:42;;;;;;;65.07;27.43;;;1.70;99.90;;;;;;4392075;32;20164;-68
2021/11/17 05:10:43;;;;;;;65.90;27.63;;;1.70;99.90;;;;;;4392064;32;20541;-68
2021/11/17 05:13:28;;;;;;;64.57;27.67;;;1.70;99.90;;;;;;4390481;32;20209;-68
2021/11/17 05:16:03;;;;;;;62.83;27.57;;;1.80;99.90;;;;;;4391375;32;20193;-67
2021/11/17 05:18:48;;;;;;;66.20;27.37;;;1.80;99.90;;;;;;4394610;32;20171;-69
2021/11/17 05:21:37;;;;;;;63.87;26.97;;;1.80;99.90;;;;;;4438705;32;20189;-68
2021/11/17 05:24:16;;;;;;;62.20;27.47;;;1.80;99.90;;;;;;4436367;32;20261;-67
2021/11/17 05:27:15;;;;;;;66.60;28.20;;;1.80;99.90;;;;;;4438530;32;20236;-67
2021/11/17 05:30:05;;;;;;;58.13;25.83;;;1.90;99.90;;;;;;4437640;32;20221;-68
2021/11/17 05:32:58;;;;;;;62.67;27.60;;;1.80;99.90;;;;;;4424256;32;20238;-67
2021/11/17 05:35:47;;;;;;;63.00;26.83;;;1.80;99.90;;;;;;4439019;32;20155;-68
2021/11/17 05:38:42;;;;;;;61.47;27.47;;;1.80;99.90;;;;;;4436995;32;20219;-68
2021/11/17 05:41:37;;;;;;;58.47;26.57;;;1.70;99.90;;;;;;4439310;32;20201;-67
2021/11/17 05:44:03;;;;;;;65.97;27.53;;;1.80;99.90;;;;;;4442568;32;20233;-67
2021/11/17 05:46:59;;;;;;;61.73;26.97;;;1.80;99.90;;;;;;4441244;32;20228;-67
2021/11/17 05:49:41;;;;;;;80.30;26.10;;;1.70;99.90;;;;;;4440389;32;20197;-67
2021/11/17 05:52:29;;;;;;;86.03;26.50;;;1.60;99.90;;;;;;4441346;32;20197;-67
2021/11/17 05:55:04;;;;;;;57.67;25.77;;;1.40;99.90;;;;;;4440587;32;20208;-67
2021/11/17 05:58:05;;;;;;;56.50;26.00;;;1.20;99.90;;;;;;4440926;32;20182;-67
2021/11/17 06:00:50;;;;;;;63.67;25.40;;;1.20;99.90;;;;;;4439136;32;20232;-67
2021/11/17 06:03:41;;;;;;;89.50;28.03;;;1.20;99.90;;;;;;4440789;32;20185;-67
2021/11/17 06:06:07;;;;;;;70.20;27.23;;;1.20;99.90;;;;;;4439099;32;20178;-68
2021/11/17 06:08:34;;;;;;;91.77;26.43;;;1.20;99.90;;;;;;4439032;32;20186;-67
2021/11/17 06:11:02;;;;;;;61.13;25.23;;;1.10;99.90;;;;;;4440990;32;20193;-67
2021/11/17 06:13:30;;;;;;;58.97;25.17;;;1.10;99.90;;;;;;4439269;32;20457;-67
2021/11/17 06:15:57;;;;;;;62.80;26.47;;;1.10;99.90;;;;;;4438995;32;20565;-67
2021/11/17 06:18:28;;;;;;;62.97;25.80;;;1.10;99.90;;;;;;4438860;32;20624;-67
2021/11/17 06:20:55;;;;;;;60.17;26.03;;;1.20;99.90;;;;;;4440581;32;20543;-67
2021/11/17 06:23:56;;;;;;;57.43;25.90;;;1.30;99.90;;;;;;4441857;32;20195;-67
2021/11/17 06:26:27;;;;;;;57.70;25.33;;;1.50;99.90;;;;;;4364606;32;20268;-68
2021/11/17 06:29:00;;;;;;;68.23;26.60;;;1.60;99.90;;;;;;4364802;32;20172;-67
2021/11/17 06:31:28;;;;;;;62.47;27.73;;;1.70;99.90;;;;;;4365009;32;20184;-68
2021/11/17 06:33:55;;;;;;;65.23;26.57;;;1.60;99.90;;;;;;4366121;32;20198;-67
2021/11/17 06:36:22;;;;;;;56.90;26.53;;;1.60;99.90;;;;;;4365088;32;20198;-68
2021/11/17 06:38:49;;;;;;;56.40;26.13;;;1.70;99.90;;;;;;4356147;32;20175;-67
2021/11/17 06:41:16;;;;;;;59.60;25.53;;;1.60;99.90;;;;;;4377115;32;20182;-68
2021/11/17 06:43:43;;;;;;;59.30;25.27;;;1.70;99.90;;;;;;4378761;32;20199;-68
2021/11/17 06:46:10;;;;;;;56.77;25.63;;;1.60;99.90;;;;;;4378282;32;20573;-68
2021/11/17 06:48:37;;;;;;;52.00;24.20;;;1.60;99.90;;;;;;4378232;32;20184;-69
2021/11/17 06:51:06;;;;;;;51.87;24.40;;;1.70;99.90;;;;;;4377814;32;20210;-68
2021/11/17 06:53:33;;;;;;;48.60;23.40;;;1.70;99.90;;;;;;4376313;32;20192;-68
2021/11/17 06:56:00;;;;;;;49.47;23.33;;;1.70;99.90;;;;;;4364181;32;20206;-68
2021/11/17 06:58:27;;;;;;;52.60;23.27;;;1.70;99.90;;;;;;4364076;32;20522;-68
2021/11/17 07:00:55;;;;;;;52.27;23.27;;;1.80;99.90;;;;;;4378925;32;20210;-68
2021/11/17 07:03:24;;;;;;;50.47;22.40;;;1.70;99.90;;;;;;4439182;32;20232;-68
2021/11/17 07:05:51;;;;;;;73.63;23.90;;;1.70;99.90;;;;;;4438217;32;20245;-68
2021/11/17 07:08:18;;;;;;;50.20;23.23;;;1.60;99.90;;;;;;4438514;32;20226;-68
2021/11/17 07:10:45;;;;;;;54.60;24.20;;;1.60;99.90;;;;;;4440869;32;20233;-68
2021/11/17 07:13:12;;;;;;;57.17;24.97;;;1.60;99.90;;;;;;4438512;32;20166;-68
2021/11/17 07:15:39;;;;;;;50.27;22.70;;;1.70;99.90;;;;;;4440207;32;20189;-68
2021/11/17 07:18:06;;;;;;;54.83;24.90;;;1.70;99.90;;;;;;4439291;32;20185;-68
2021/11/17 07:20:35;;;;;;;56.27;25.47;;;1.80;99.90;;;;;;4437442;32;20194;-67
2021/11/17 07:23:03;;;;;;;54.53;25.00;;;1.90;99.90;;;;;;4440683;32;20185;-67
2021/11/17 07:25:30;;;;;;;52.57;23.57;;;1.90;99.90;;;;;;4441877;32;20563;-69
2021/11/17 07:27:58;;;;;;;64.20;24.93;;;1.90;99.90;;;;;;4428044;32;20171;-69
2021/11/17 07:30:36;;;;;;;52.97;23.93;;;2.00;99.90;;;;;;4456317;32;20138;-69
2021/11/17 07:33:04;;;;;;;48.50;23.30;;;2.10;99.90;;;;;;4440421;32;20534;-68
2021/11/17 07:35:34;;;;;;;48.07;23.00;;;2.10;99.90;;;;;;4441959;32;20216;-69
2021/11/17 07:38:02;;;;;;;52.43;23.97;;;2.10;99.90;;;;;;4440871;32;20170;-69
2021/11/17 07:40:35;;;;;;;51.80;23.33;;;2.10;99.90;;;;;;4440726;32;20189;-68
2021/11/17 07:43:07;;;;;;;51.17;23.43;;;2.20;99.90;;;;;;4454622;32;20150;-68
2021/11/17 07:45:34;;;;;;;54.50;24.87;;;2.20;99.90;;;;;;4440938;32;20250;-68
2021/11/17 07:48:02;;;;;;;57.43;24.43;;;2.30;99.90;;;;;;4441299;32;20165;-66
2021/11/17 07:50:30;;;;;;;56.17;24.90;;;2.40;99.90;;;;;;4439999;32;20185;-67
2021/11/17 07:52:57;;;;;;;51.50;23.97;;;2.50;99.90;;;;;;4455922;32;20154;-67
2021/11/17 07:55:25;;;;;;;57.83;25.37;;;2.50;99.90;;;;;;4439447;32;20206;-69
2021/11/17 07:57:53;;;;;;;54.57;24.77;;;2.50;99.90;;;;;;4426526;32;20393;-68
2021/11/17 08:00:26;;;;;;;53.80;24.13;;;2.50;99.90;;;;;;4437331;32;20182;-68
2021/11/17 08:02:54;;;;;;;51.93;23.80;;;2.50;99.90;;;;;;4424652;32;20205;-68
2021/11/17 08:05:24;;;;;;;53.50;24.30;;;2.60;99.90;;;;;;4437454;32;20387;-68
2021/11/17 08:07:52;;;;;;;50.90;23.40;;;2.60;99.90;;;;;;4438835;32;20221;-68
2021/11/17 08:10:22;;;;;;;52.67;24.37;;;2.70;99.90;;;;;;4426459;32;20170;-68
2021/11/17 08:12:49;;;;;;;49.73;23.50;;;2.80;99.90;;;;;;4438607;32;20531;-68
2021/11/17 08:15:16;;;;;;;52.27;23.93;;;2.90;99.90;;;;;;4437459;32;20166;-68
2021/11/17 08:17:43;;;;;;;50.03;23.37;;;3.00;99.90;;;;;;4439117;32;20237;-69
2021/11/17 08:20:13;;;;;;;49.13;23.63;;;2.90;99.90;;;;;;4439085;32;20192;-68
2021/11/17 08:22:44;;;;;;;52.77;24.43;;;3.00;99.90;;;;;;4438713;32;20175;-68
2021/11/17 08:25:12;;;;;;;49.33;24.57;;;3.30;99.90;;;;;;4437371;32;20201;-68
2021/11/17 08:27:39;;;;;;;45.73;22.70;;;3.40;99.90;;;;;;4438326;32;20174;-68
2021/11/17 08:30:10;;;;;;;50.47;23.43;;;3.30;99.90;;;;;;4438396;32;20208;-68
2021/11/17 08:32:41;;;;;;;48.57;23.40;;;3.30;99.90;;;;;;4437533;32;20197;-68
2021/11/17 08:35:11;;;;;;;47.63;23.80;;;3.30;99.90;;;;;;4437346;32;20198;-68
2021/11/17 08:37:38;;;;;;;45.33;22.40;;;3.30;99.90;;;;;;4437423;32;20566;-67
2021/11/17 08:40:21;;;;;;;47.30;22.67;;;3.20;99.90;;;;;;4437062;32;20268;-68
2021/11/17 08:42:47;;;;;;;45.90;22.30;;;3.30;99.90;;;;;;4437368;32;20236;-67
2021/11/17 08:45:16;;;;;;;44.63;22.83;;;3.20;99.90;;;;;;4437492;32;20222;-68
2021/11/17 08:47:44;;;;;;;43.77;22.63;;;3.30;99.90;;;;;;4437572;32;20242;-67
2021/11/17 08:50:15;;;;;;;47.20;23.10;;;3.40;99.90;;;;;;4438629;32;20139;-67
2021/11/17 08:52:44;;;;;;;44.23;22.20;;;3.60;99.90;;;;;;4437135;32;20198;-67
2021/11/17 08:55:11;;;;;;;43.43;22.23;;;3.70;99.90;;;;;;4438072;32;20170;-68
2021/11/17 08:57:42;;;;;;;45.87;22.77;;;3.70;99.90;;;;;;4437777;32;20178;-68
2021/11/17 09:00:12;;;;;;;44.73;22.70;;;3.80;99.90;;;;;;4441350;32;20175;-67
2021/11/17 09:02:47;;;;;;;45.67;22.80;;;4.00;99.90;;;;;;4438198;32;20170;-67
2021/11/17 09:05:17;;;;;;;45.70;22.53;;;4.10;99.90;;;;;;4439202;32;20190;-67
2021/11/17 09:07:46;;;;;;;47.90;22.87;;;4.20;99.90;;;;;;4436727;32;20256;-67
2021/11/17 09:10:24;;;;;;;47.27;23.33;;;4.10;99.90;;;;;;4438065;32;20181;-67
2021/11/17 09:12:51;;;;;;;40.47;21.50;;;4.30;99.90;;;;;;4438885;32;20181;-67
2021/11/17 09:15:20;;;;;;;44.90;22.70;;;4.30;99.90;;;;;;4437300;32;20198;-70
2021/11/17 09:17:48;;;;;;;44.07;22.20;;;4.40;99.90;;;;;;4442287;32;20147;-67
2021/11/17 09:20:17;;;;;;;44.53;22.23;;;4.40;99.90;;;;;;4441248;32;20249;-67
2021/11/17 09:22:45;;;;;;;49.53;23.80;;;4.40;99.90;;;;;;4441130;32;20221;-67
2021/11/17 09:25:13;;;;;;;41.37;22.10;;;4.50;99.90;;;;;;4440327;32;20628;-67
2021/11/17 09:27:40;;;;;;;48.17;23.50;;;4.70;99.90;;;;;;4441236;32;20188;-67
2021/11/17 09:30:11;;;;;;;42.43;22.17;;;4.80;99.90;;;;;;4440895;32;20165;-67
2021/11/17 09:32:38;;;;;;;42.63;22.43;;;4.80;99.90;;;;;;4439989;32;20230;-67
2021/11/17 09:35:09;;;;;;;41.27;22.07;;;4.70;99.90;;;;;;4441611;32;20437;-67
2021/11/17 09:37:38;;;;;;;38.73;21.30;;;4.60;99.90;;;;;;4441277;32;20189;-67
2021/11/17 09:40:08;;;;;;;40.70;21.50;;;4.50;99.90;;;;;;4439713;32;20555;-66
2021/11/17 09:42:36;;;;;;;41.17;21.23;;;4.40;99.90;;;;;;4441302;32;20409;-67
2021/11/17 09:45:05;;;;;;;41.63;22.33;;;4.40;99.90;;;;;;4440190;32;20174;-67
2021/11/17 09:47:34;;;;;;;40.73;22.13;;;4.40;99.90;;;;;;4440104;32;20417;-67
2021/11/17 09:50:16;;;;;;;43.27;21.63;;;4.40;99.90;;;;;;4441659;32;20162;-67
2021/11/17 09:52:53;;;;;;;40.57;22.13;;;4.50;99.90;;;;;;4440112;32;20175;-67
2021/11/17 09:55:34;;;;;;;43.07;21.83;;;4.60;99.90;;;;;;4439878;32;20218;-67
2021/11/17 09:58:07;;;;;;;42.63;21.87;;;4.80;99.90;;;;;;4440998;32;20159;-67
2021/11/17 10:00:52;;;;;;;40.90;21.27;;;5.00;99.90;;;;;;4438925;32;20198;-67
2021/11/17 10:03:46;;;;;;;40.20;21.93;;;5.10;99.90;;;;;;4439388;32;20184;-68
2021/11/17 10:12:02;;;;;;;35.03;20.00;;;5.40;99.90;;;;;;4439563;32;20204;-67
2021/11/17 10:14:37;;;;;;;40.70;21.17;;;5.40;99.90;;;;;;4439562;32;20175;-67
2021/11/17 10:17:35;;;;;;;40.27;21.60;;;5.40;99.90;;;;;;4439243;32;20254;-68
2021/11/17 10:20:24;;;;;;;41.37;21.20;;;5.40;99.90;;;;;;4439576;32;20196;-68
2021/11/17 10:23:16;;;;;;;40.53;20.93;;;5.50;99.90;;;;;;4444494;32;20405;-68
2021/11/17 10:25:50;;;;;;;39.50;21.43;;;5.40;99.90;;;;;;4438884;32;20184;-67
2021/11/17 10:28:24;;;;;;;40.37;20.83;;;5.50;99.90;;;;;;4439003;32;20171;-68
2021/11/17 10:31:07;;;;;;;37.73;20.73;;;5.40;99.90;;;;;;4438567;32;20239;-68
2021/11/17 10:33:55;;;;;;;36.27;20.40;;;5.40;99.90;;;;;;4441009;32;20175;-67
2021/11/17 10:36:46;;;;;;;37.60;20.60;;;5.40;99.90;;;;;;4440822;32;20221;-67
2021/11/17 10:39:38;;;;;;;39.03;20.87;;;5.40;99.90;;;;;;4440666;32;20201;-67
2021/11/17 10:42:26;;;;;;;38.27;20.37;;;5.40;99.90;;;;;;4438392;32;20567;-67
2021/11/17 10:45:17;;;;;;;39.73;21.23;;;5.40;99.90;;;;;;4439897;32;20178;-68
2021/11/17 10:47:47;;;;;;;43.10;21.40;;;5.40;99.90;;;;;;4429858;32;20201;-66
2021/11/17 10:50:23;;;;;;;36.87;20.97;;;5.40;99.90;;;;;;4441711;32;20168;-66
2021/11/17 10:52:50;;;;;;;37.93;20.60;;;5.30;99.90;;;;;;4440102;32;20518;-66
2021/11/17 10:55:26;;;;;;;40.00;20.30;;;5.30;99.90;;;;;;4439834;32;20204;-67
2021/11/17 10:57:54;;;;;;;39.87;21.30;;;5.40;99.90;;;;;;4439052;32;20187;-66
2021/11/17 11:00:30;;;;;;;40.07;21.53;;;5.60;99.90;;;;;;4439226;32;20429;-67
2021/11/17 11:02:59;;;;;;;39.40;21.40;;;5.70;99.90;;;;;;4441260;32;20230;-66
2021/11/17 11:05:30;;;;;;;41.10;22.23;;;5.80;99.90;;;;;;4438798;32;20180;-66
2021/11/17 11:08:01;;;;;;;40.73;21.73;;;5.90;99.90;;;;;;4438560;32;20211;-66
2021/11/17 11:10:38;;;;;;;42.57;22.27;;;6.00;99.90;;;;;;4438265;32;20195;-66
2021/11/17 11:13:11;;;;;;;39.80;21.63;;;6.10;99.90;;;;;;4440305;32;20483;-66
2021/11/17 11:15:55;;;;;;;41.90;21.70;;;6.20;99.90;;;;;;4426848;32;20186;-67
2021/11/17 11:18:38;;;;;;;39.47;21.43;;;6.30;99.90;;;;;;4438883;32;20171;-67
2021/11/17 11:21:08;;;;;;;40.57;22.20;;;6.30;99.90;;;;;;4438363;32;20203;-67
2021/11/17 11:24:07;;;;;;;44.77;22.50;;;6.40;99.90;;;;;;4441013;32;20406;-67
2021/11/17 11:26:59;;;;;;;37.97;21.13;;;6.50;99.90;;;;;;4437908;32;20188;-68
2021/11/17 11:29:30;;;;;;;42.47;21.50;;;6.60;99.90;;;;;;4438851;32;20181;-66
2021/11/17 11:32:03;;;;;;;41.10;21.70;;;6.80;99.90;;;;;;4438332;32;20216;-67
2021/11/17 11:34:57;;;;;;;38.27;21.30;;;7.10;99.90;;;;;;4438222;32;20177;-67
2021/11/17 11:37:24;;;;;;;38.10;21.53;;;7.30;99.90;;;;;;4438263;32;20230;-67
2021/11/17 11:39:56;;;;;;;40.90;21.07;;;7.60;99.90;;;;;;4438070;32;20216;-68
2021/11/17 11:42:23;;;;;;;35.43;20.87;;;7.90;99.90;;;;;;4438129;32;20189;-67
2021/11/17 11:45:36;;;;;;;38.80;20.37;;;8.10;99.90;;;;;;4437644;32;20176;-66
2021/11/17 11:48:10;;;;;;;38.73;20.70;;;8.20;99.90;;;;;;4361597;32;20240;-66
2021/11/17 11:50:37;;;;;;;37.90;21.10;;;8.40;99.90;;;;;;4349295;33;20436;-68
2021/11/17 11:53:19;;;;;;;39.77;20.97;;;8.30;99.90;;;;;;4349774;33;20225;-67
2021/11/17 11:55:55;;;;;;;38.80;21.23;;;8.40;99.90;;;;;;4348431;33;20237;-66
2021/11/17 11:58:24;;;;;;;36.83;20.73;;;8.60;99.90;;;;;;4350543;32;20236;-67
2021/11/17 12:01:02;;;;;;;37.10;20.93;;;8.60;99.90;;;;;;4336934;33;20241;-67
2021/11/17 12:03:34;;;;;;;43.00;21.90;;;8.20;99.90;;;;;;4361870;32;20506;-69
2021/11/17 12:06:22;;;;;;;38.77;21.37;;;8.00;99.90;;;;;;4350461;32;20247;-68
2021/11/17 12:09:22;;;;;;;38.40;20.70;;;8.00;99.90;;;;;;4348630;33;20188;-69
2021/11/17 12:12:24;;;;;;;40.33;21.50;;;7.80;99.90;;;;;;4346574;33;20198;-68
2021/11/17 12:15:09;;;;;;;39.50;21.13;;;7.80;99.90;;;;;;4347907;33;20221;-67
2021/11/17 12:17:37;;;;;;;40.57;21.57;;;7.80;99.90;;;;;;4348494;33;20251;-68
2021/11/17 12:20:25;;;;;;;41.10;21.87;;;7.80;99.90;;;;;;4348049;33;20234;-67
2021/11/17 12:22:55;;;;;;;40.23;21.70;;;7.70;99.90;;;;;;4348627;33;20557;-67
2021/11/17 12:25:25;;;;;;;40.77;21.93;;;7.70;99.90;;;;;;4416433;32;20602;-67
2021/11/17 12:27:58;;;;;;;41.23;22.27;;;7.80;99.90;;;;;;4436988;32;20212;-69
2021/11/17 12:30:51;;;;;;;39.40;21.63;;;7.80;99.90;;;;;;4438608;32;20195;-68
2021/11/17 12:33:23;;;;;;;39.60;21.90;;;7.70;99.90;;;;;;4439505;32;20227;-68
2021/11/17 12:36:31;;;;;;;37.70;21.23;;;7.70;99.90;;;;;;4439284;32;20178;-68
2021/11/17 12:39:13;;;;;;;39.67;21.70;;;7.60;99.90;;;;;;4438688;32;20181;-68
2021/11/17 12:41:42;;;;;;;40.67;21.30;;;7.70;99.90;;;;;;4424591;32;20347;-68
2021/11/17 12:44:21;;;;;;;42.10;20.93;;;7.80;99.90;;;;;;4439557;32;20175;-68
2021/11/17 12:47:10;;;;;;;40.03;20.87;;;8.00;99.90;;;;;;4445253;32;20296;-68
2021/11/17 12:49:51;;;;;;;36.63;20.50;;;8.50;99.90;;;;;;4437468;32;20181;-68
2021/11/17 12:52:19;;;;;;;41.97;21.57;;;9.00;99.90;;;;;;4441616;32;20195;-68
2021/11/17 12:55:13;;;;;;;37.03;20.40;;;9.10;99.90;;;;;;4441180;32;20284;-69
2021/11/17 12:58:33;;;;;;;38.20;20.93;;;9.40;99.90;;;;;;4440624;32;20178;-68
2021/11/17 13:01:30;;;;;;;39.93;21.10;;;9.50;99.90;;;;;;4391520;32;20179;-68
2021/11/17 13:04:23;;;;;;;37.20;20.13;;;9.40;99.90;;;;;;4381057;32;20616;-69
2021/11/17 13:06:55;;;;;;;38.30;20.47;;;9.40;99.90;;;;;;4381065;32;20171;-69
2021/11/17 13:09:29;;;;;;;36.97;21.40;;;9.60;99.90;;;;;;4409113;32;20186;-68
2021/11/17 13:12:06;;;;;;;37.60;20.97;;;9.50;99.90;;;;;;4395775;32;20253;-68
2021/11/17 13:14:42;;;;;;;38.33;21.70;;;9.40;99.90;;;;;;4408933;32;20213;-68
2021/11/17 13:17:34;;;;;;;38.60;21.07;;;9.10;99.90;;;;;;4396210;32;20211;-68
2021/11/17 13:20:13;;;;;;;42.13;22.67;;;8.70;99.90;;;;;;4396648;32;20283;-68
2021/11/17 13:22:43;;;;;;;38.70;21.50;;;8.20;99.90;;;;;;4395912;32;20175;-68
2021/11/17 13:25:10;;;;;;;39.53;21.77;;;7.90;99.90;;;;;;4396556;32;20252;-68
2021/11/17 13:27:44;;;;;;;39.13;21.30;;;7.80;99.90;;;;;;4396470;32;20406;-68
2021/11/17 13:30:43;;;;;;;41.77;22.73;;;7.60;99.90;;;;;;4395403;32;20261;-68
2021/11/17 13:33:24;;;;;;;40.70;22.43;;;7.50;99.90;;;;;;4392697;32;20252;-68
2021/11/17 13:36:09;;;;;;;41.93;23.20;;;7.30;99.90;;;;;;4440094;32;20205;-69
2021/11/17 13:38:52;;;;;;;41.63;21.87;;;7.20;99.90;;;;;;4456442;32;20150;-68
2021/11/17 13:41:41;;;;;;;41.93;22.47;;;7.00;99.90;;;;;;4455870;32;20208;-69
2021/11/17 13:44:10;;;;;;;43.93;23.00;;;6.90;99.90;;;;;;4456198;32;20186;-69
2021/11/17 13:46:48;;;;;;;41.40;22.67;;;6.90;99.90;;;;;;4456242;32;20173;-68
2021/11/17 13:49:16;;;;;;;44.70;23.47;;;6.80;99.90;;;;;;4455025;32;20198;-68
2021/11/17 13:51:43;;;;;;;44.33;23.10;;;6.70;99.90;;;;;;4454850;32;20185;-69
2021/11/17 13:54:10;;;;;;;41.87;23.37;;;6.70;99.90;;;;;;4455734;32;20412;-69
2021/11/17 13:56:38;;;;;;;43.97;23.50;;;6.60;99.90;;;;;;4454874;32;20172;-68
2021/11/17 13:59:06;;;;;;;41.27;23.10;;;6.50;99.90;;;;;;4455972;32;20565;-68
2021/11/17 14:01:33;;;;;;;49.03;24.83;;;6.30;99.90;;;;;;4455503;32;20241;-68
2021/11/17 14:04:00;;;;;;;47.33;25.50;;;6.30;99.90;;;;;;4454901;32;20192;-68
2021/11/17 14:06:28;;;;;;;47.93;24.37;;;6.30;99.90;;;;;;4456834;32;20165;-68
2021/11/17 14:08:55;;;;;;;48.47;25.40;;;6.20;99.90;;;;;;4454447;32;20184;-68
2021/11/17 14:11:21;;;;;;;50.10;25.37;;;6.10;99.90;;;;;;4454368;32;20199;-68
2021/11/17 14:13:48;;;;;;;48.80;24.73;;;6.10;99.90;;;;;;4440658;32;20453;-68
2021/11/17 14:16:17;;;;;;;45.50;24.83;;;6.00;99.90;;;;;;4438868;32;20198;-68
2021/11/17 14:18:45;;;;;;;48.10;25.87;;;6.00;99.90;;;;;;4439238;32;20436;-68
2021/11/17 14:21:15;;;;;;;46.23;24.30;;;6.00;99.90;;;;;;4440640;32;20227;-68
2021/11/17 14:23:43;;;;;;;51.47;26.10;;;6.00;99.90;;;;;;4437518;32;20169;-71
2021/11/17 14:26:13;;;;;;;47.00;25.37;;;5.90;99.90;;;;;;4441696;32;20189;-69
2021/11/17 14:28:45;;;;;;;46.60;25.30;;;5.90;99.90;;;;;;4439858;32;20259;-68
2021/11/17 14:31:30;;;;;;;50.77;25.93;;;5.80;99.90;;;;;;4439007;32;20398;-69
2021/11/17 14:33:59;;;;;;;51.10;26.30;;;5.80;99.90;;;;;;4440479;32;20236;-69
2021/11/17 14:36:30;;;;;;;49.27;25.90;;;5.80;99.90;;;;;;4439723;32;20180;-69
2021/11/17 14:39:01;;;;;;;50.90;26.17;;;5.70;99.90;;;;;;4440625;32;20238;-69
2021/11/17 14:41:28;;;;;;;55.07;27.73;;;5.60;99.90;;;;;;4439620;32;20164;-69
2021/11/17 14:43:55;;;;;;;52.93;27.57;;;5.50;99.90;;;;;;4441884;32;20207;-70
2021/11/17 14:46:22;;;;;;;56.60;27.50;;;5.40;99.90;;;;;;4438328;32;20194;-69
2021/11/17 14:48:49;;;;;;;54.23;27.40;;;5.30;99.90;;;;;;4439324;32;20545;-69
2021/11/17 14:51:16;;;;;;;50.07;27.30;;;5.20;99.90;;;;;;4440026;32;20214;-69
2021/11/17 14:53:46;;;;;;;59.77;28.53;;;5.20;99.90;;;;;;4438327;32;20472;-69
2021/11/17 14:56:15;;;;;;;53.07;28.17;;;5.10;99.90;;;;;;4437774;32;20219;-69
2021/11/17 14:58:42;;;;;;;56.30;29.10;;;5.10;99.90;;;;;;4438428;32;20190;-69
2021/11/17 15:01:24;;;;;;;56.70;29.03;;;5.00;99.90;;;;;;4439409;32;20181;-69
2021/11/17 15:03:53;;;;;;;59.00;28.73;;;4.90;99.90;;;;;;4439189;32;20177;-69
2021/11/17 15:06:23;;;;;;;59.90;29.40;;;4.80;99.90;;;;;;4441295;32;20190;-68
2021/11/17 15:08:51;;;;;;;60.17;30.97;;;4.70;99.90;;;;;;4428367;32;20177;-68
2021/11/17 15:11:20;;;;;;;62.57;30.27;;;4.60;99.90;;;;;;4435963;32;20169;-69
2021/11/17 15:13:48;;;;;;;59.40;30.00;;;4.50;99.90;;;;;;4440671;32;20217;-69
2021/11/17 15:16:15;;;;;;;61.67;30.63;;;4.50;99.90;;;;;;4438651;32;20180;-69
2021/11/17 15:18:47;;;;;;;60.30;29.93;;;4.50;99.90;;;;;;4438423;32;20236;-69
2021/11/17 15:21:18;;;;;;;65.73;32.57;;;4.40;99.90;;;;;;4438325;32;20178;-69
2021/11/17 15:23:46;;;;;;;64.63;31.17;;;4.40;99.90;;;;;;4442910;32;20579;-68
2021/11/17 15:26:15;;;;;;;64.87;31.50;;;4.30;99.90;;;;;;4450114;32;20554;-68
2021/11/17 15:28:49;;;;;;;65.23;31.53;;;4.30;99.90;;;;;;4438502;32;20237;-69
2021/11/17 15:31:19;;;;;;;66.30;30.83;;;4.30;99.90;;;;;;4438214;32;20178;-68
2021/11/17 15:33:46;;;;;;;67.90;32.70;;;4.20;99.90;;;;;;4442034;32;20225;-68
2021/11/17 15:36:15;;;;;;;69.50;31.93;;;4.20;99.90;;;;;;4440698;32;20173;-68
2021/11/17 15:38:45;;;;;;;68.07;32.60;;;4.10;99.90;;;;;;4440653;32;20216;-69
2021/11/17 15:41:15;;;;;;;72.00;33.47;;;4.10;99.90;;;;;;4440388;32;20186;-69
2021/11/17 15:43:44;;;;;;;72.77;33.20;;;4.00;99.90;;;;;;4437593;32;20167;-69
2021/11/17 15:46:11;;;;;;;74.77;33.37;;;4.00;99.90;;;;;;4445330;32;20170;-69
2021/11/17 15:48:39;;;;;;;72.20;33.37;;;4.00;99.90;;;;;;4440838;32;20463;-69
2021/11/17 15:51:12;;;;;;;78.97;34.33;;;4.00;99.90;;;;;;4440426;32;20178;-69
2021/11/17 15:53:39;;;;;;;76.70;33.57;;;4.00;99.90;;;;;;4441091;32;20178;-69
2021/11/17 15:56:08;;;;;;;75.07;33.87;;;4.00;99.90;;;;;;4440075;32;20201;-70